Regionale Übersicht

METAR und TAF

Dienstag, 19. März 2019 - 09:25 Uhr

Beobachtete horizontale meteorologische Sicht an ausgewählten Flughäfen. Die vollständigen METARs und Flugwettervorhersagen (TAFs) sind verfügbar, wenn Sie auf das entsprechende Symbol mit der ICAO-Flughafenkennung klicken.

  • Luxemburg (ELLX)

    Taf: TAF ELLX 190500Z 1906/2012 36004KT CAVOK TEMPO 1906/1909 5000 BR NSC=

    Metar: METAR ELLX 190750Z 05005KT CAVOK 04/M01 Q1027 NOSIG=

  • Spangdahlem (ETAD)

    Taf: TAF ETAD 190500Z 1905/2011 32005KT 8000 BR FEW030 QNH3028INS TEMPO 1905/1907 3200 BR BECMG 1907/1908 35006KT 9999 NSW FEW040 QNH3033INS BECMG 1917/1918 35006KT 9999 BKN060 620602 QNH3038INS TX09/1914Z TNM03/1906Z=

    Metar: nil

  • Metz/Nancy (LFJL)

    Taf: TAF LFJL 190500Z 1906/2006 02005KT 3000 BR NSC TEMPO 1906/1908 0300 FG VV/// BECMG 1908/1911 9999 NSW SCT040 BECMG 1913/1916 CAVOK=

    Metar: nil

  • Saarbrücken/Intl (EDDR)

    Taf: TAF EDDR 190500Z 1906/2006 04004KT 7000 NSC TEMPO 1906/1908 3000 BR=

    Metar: nil

  • Hahn (EDFH)

    Taf: TAF EDFH 190500Z 1906/2006 34004KT CAVOK BECMG 1920/1922 14005KT=

    Metar: nil

  • Ramstein (ETAR)

    Taf: TAF AMD ETAR 190445Z 1904/2008 VRB06KT 9999 FEW060 QNH3023INS BECMG 1905/1906 VRB06KT 9999 SKC QNH3030INS BECMG 1921/1922 VRB06KT 9999 SCT050 QNH3044INS TX08/1915Z TNM04/1905Z=

    Metar: nil

  • Nancy/Ochey (LFSO)

    Taf: TAF LFSO 190800Z NIL=

    Metar: nil

  • Liège Bierset (EBLG)

    Taf: TAF EBLG 190507Z 1906/2012 19003KT 6000 SCT020 PROB40 TEMPO 1906/1908 3000 BR=

    Metar: nil

  • Saint-Dizier (LFSI)

    Taf: TAF LFSI 190800Z 1909/2009 29005KT 8000 FEW005 FM191100 30010KT 9999 FEW030 BECMG 1917/1919 VRB02KT BECMG 2000/2002 4000 BR BECMG 2007/2008 02010KT 9999 NSW=

    Metar: nil

  • Maastricht/Zuid Limburg (EHBK)

    Taf: TAF EHBK 190507Z 1906/2012 26005KT CAVOK=

    Metar: nil

  • Köln/Köln-Bonn (EDDK)

    Taf: TAF EDDK 190500Z 1906/2012 VRB03KT 9999 FEW030 BECMG 1909/1912 31005KT BECMG 1916/1919 11004KT=

    Metar: METAR EDDK 190750Z 14003KT 120V200 CAVOK 03/M01 Q1028 NOSIG=

  • Charleroi (EBCI)

    Taf: TAF EBCI 190507Z 1906/2012 21004KT 6000 SCT020 PROB40 TEMPO 1906/1908 3000 BR=

    Metar: nil

  • Wiesbaden (ETOU)

    Taf: TAF AMD ETOU 190734Z 1907/2010 29005KT 9999 SCT025 QNH3030INS BECMG 1907/1908 28005KT 9999 FEW040 QNH3030INS BECMG 2003/2004 VRB03KT 9999 SCT030 BKN035 QNH3047INS TX09/1917Z TNM03/2006Z=

    Metar: nil

  • Karlsruhe/Baden-Baden (EDSB)

    Taf: TAF EDSB 190500Z 1906/2006 02004KT CAVOK=

    Metar: nil

  • Chalons/Vatry (LFOK)

    Taf: TAF LFOK 190500Z 1906/2006 VRB03KT 8000 NSC TEMPO 1906/1908 3000 BR PROB30 2000/2006 1500 MIFG=

    Metar: nil

  • Brüssel (EBBR)

    Taf: TAF EBBR 190507Z 1906/2012 22005KT 9999 SCT020 PROB30 TEMPO 1906/1907 4500 BR PROB40 TEMPO 2010/2012 3500 -DZ BKN004=

    Metar: METAR EBBR 190750Z 20006KT CAVOK 05/01 Q1027 NOSIG=

  • Düsseldorf (EDDL)

    Taf: TAF EDDL 190500Z 1906/2012 VRB03KT 9999 FEW030 BECMG 1909/1912 26005KT BECMG 1916/1919 16006KT=

    Metar: nil

  • Luxeuil (LFSX)

    Taf: TAF LFSX 190800Z 1909/2009 VRB03KT CAVOK BECMG 1912/1915 32010KT BECMG 1921/1924 VRB03KT 4000 BR TEMPO 2003/2006 1000=

    Metar: nil

  • Eindhoven (EHEH)

    Taf: TAF EHEH 190521Z 1906/2012 VRB02KT 9999 SCT025 PR0B40 TEMPO 1906/1908 SCT012 BKN015 BECMG 1910/1913 26006KT BECMG 1917/1919 20005KT PROB30 TEMPO 2007/2010 4000 BR -DZ SCT005 BKN008=

    Metar: nil

  • Niederrhein (EDLV)

    Taf: TAF EDLV 190500Z 1906/2006 VRB03KT 8000 FEW030 TEMPO 1909/1914 26005KT BECMG 2003/2006 19005KT=

    Metar: nil

  • Dortmund/Wickede (EDLW)

    Taf: TAF EDLW 190500Z 1906/2006 21006KT 9999 FEW030 BECMG 1907/1910 30005KT BECMG 1917/1920 18005KT=

    Metar: nil

  • Stuttgart/Echterdingen (EDDS)

    Taf: TAF EDDS 190500Z 1906/2006 34004KT 9999 SCT040=

    Metar: METAR EDDS 190750Z 12004KT 080V160 9999 FEW025 05/00 Q1026 NOSIG=

  • Basel-Mühlhausen (LFSB)

    Taf: TAF AMD LFSB 190733Z 1907/2006 36004KT 9999 FEW030 SCT080 PROB40 TEMPO 1911/1916 FEW040TCU SCT050=

    Metar: METAR LFSB 190800Z VRB03KT 9999 FEW030 SCT080 03/01 Q1027 NOSIG=

  • Lille (LFQQ)

    Taf: TAF AMD LFQQ 190811Z 1908/2012 23005KT 8000 SCT030 TEMPO 1908/1910 BKN010 PROB30 TEMPO 1916/1918 4000 SHRA BKN020TCU BECMG 1921/1924 3000 BR BECMG 2000/2003 OVC003 BECMG 2008/2010 8000 NSW OVC012 BECMG 2010/2012 BKN030=

    Metar: nil

  • Paris/Charles de Gaulle (LFPG)

    Taf: TAF LFPG 190500Z 1906/2012 34005KT CAVOK TX12/1915Z TN04/2006Z PROB30 1906/1908 4000 BR PROB40 TEMPO 2004/2006 3000 BR PROB30 TEMPO 2005/2006 0800 BCFG=

    Metar: nil

  • Paderborn/Lippstadt (EDLP)

    Taf: TAF EDLP 190500Z 1906/2006 28006KT 9999 SCT030 TEMPO 1906/1909 BKN012 BECMG 1916/1919 18006KT=

    Metar: nil

  • Paris/Le Bourget (LFPB)

    Taf: TAF LFPB 190500Z 1906/2006 34005KT CAVOK PROB40 TEMPO 2004/2006 3000 BR PROB30 TEMPO 2005/2006 0800 BCFG=

    Metar: METAR LFPB 190800Z AUTO VRB01KT CAVOK 05/03 Q1028 NOSIG=

  • Rotterdam (EHRD)

    Taf: TAF EHRD 190508Z 1906/2012 18003KT 9999 SCT025 BECMG 1910/1913 26008KT BECMG 1917/1920 20005KT CAVOK BECMG 2002/2005 6000 BKN012 TEMPO 2004/2010 2500 BR -DZ BKN004 BECMG 2008/2011 23010KT=

    Metar: nil

  • Zürich/Kloten (LSZH)

    Taf: TAF LSZH 190525Z 1906/2012 VRB03KT 0400 FZFG VV002 TX08/1915Z TNM03/1906Z TNM03/2006Z PROB40 1906/1907 0200 VV001 BECMG 1907/1909 2500 BCFG SCT003 BKN008 BECMG 1908/1911 04007KT 9999 NSW SCT030 BECMG 1917/1920 CAVOK=

    Metar: METAR LSZH 190750Z VRB02KT 0350 R14/0550N R16/0550N R28/0600N R34/0800U FZFG VV001 M00/M01 Q1026 BECMG 0800 VV003=

  • Oostende/Intl (EBOS)

    Taf: TAF EBOS 190507Z 1906/2012 21004KT 3000 BR SCT025 PROB30 TEMPO 1906/1907 1500 MIFG BECMG 1907/1909 8000 NSW BECMG 1923/2001 3500 BR BKN003 TEMPO 2007/2012 2000 -DZ=

    Metar: nil

  • Paris/Orly (LFPO)

    Taf: TAF LFPO 190500Z 1906/2012 30003KT CAVOK PROB30 TEMPO 1906/1908 2500 BR=

    Metar: nil

  • Beauvais (LFOB)

    Taf: TAF AMD LFOB 190656Z 1906/2006 VRB03KT 3000 BR BKN002 TEMPO 1906/1909 0500 BCFG VV/// BECMG 1909/1911 9999 NSW SCT020 PROB30 TEMPO 1915/1917 4000 SHRA BKN020TCU BECMG 1921/1924 3000 BR PROB30 2003/2006 0600 FG VV///=

    Metar: nil

  • Münster/Intl (EDDG)

    Taf: TAF EDDG 190500Z 1906/2006 VRB03KT 9999 FEW030 BECMG 1906/1908 25006KT BECMG 1917/1920 17005KT=

    Metar: METAR EDDG 190750Z 26003KT 220V280 9999 FEW019 03/01 Q1027 NOSIG=

  • Illesheim (ETIK)

    Taf: TAF ETIK 190602Z 1906/2012 27005KT 9999 SCT030 BKN060 QNH3027INS BECMG 1912/1913 31003KT 9999 SCT040 QNH3031INS BECMG 2000/2001 VRB05KT 9999 SCT045 QNH3040INS TX06/1915Z TNM03/1906Z=

    Metar: nil

  • Duebendorf (LSMD)

    Taf: TAF LSMD 190500Z NIL=

    Metar: nil

  • Villacoublay (LFPV)

    Taf: TAF LFPV 190800Z 1909/2009 31005KT CAVOK=

    Metar: nil

  • Payerne (LSMP)

    Taf: TAF LSMP 190525Z 1906/2012 VRB03KT CAVOK BECMG 1910/1912 05012KT 9999 FEW040 BECMG 1918/1921 CAVOK BECMG 2010/2012 05015G25KT=

    Metar: nil

  • Amsterdam/Schipol (EHAM)

    Taf: TAF EHAM 190508Z 1906/2012 18003KT 9999 SCT025 PROB30 1906/1907 6000 BKN007 BECMG 1910/1913 26008KT BECMG 1917/1920 20005KT CAVOK BECMG 2002/2005 6000 BKN012 TEMPO 2004/2010 2500 BR -DZ BKN004 BECMG 2008/2011 23010KT=

    Metar: METAR EHAM 190755Z 16004KT 9999 FEW002 03/02 Q1027 TEMPO SCT003=

  • Emmen (LSME)

    Taf: TAF LSME 190500Z NIL=

    Metar: nil

  • Friedrichshafen (EDNY)

    Taf: TAF EDNY 190500Z 1906/2006 04004KT 9999 SCT025 PROB30 TEMPO 1906/1908 1200 BCFG OVC002 PROB30 TEMPO 1910/1915 20005KT=

    Metar: nil

  • Alpnach (LSMA)

    Taf: TAF LSMA 190500Z NIL=

    Metar: nil

  • Meiringen (LSMM)

    Taf: TAF LSMM 190500Z NIL=

    Metar: nil

  • Nürnberg (EDDN)

    Taf: TAF EDDN 190500Z 1906/2006 VRB03KT 9999 FEW020 BECMG 1908/1910 31005KT BECMG 1917/1919 VRB03KT=

    Metar: METAR EDDN 190750Z VRB01KT CAVOK 03/01 Q1026 NOSIG=

  • Rouen (LFOP)

    Taf: TAF LFOP 190500Z 1906/2006 VRB03KT 3000 BR BKN016 TEMPO 1906/1909 0600 FG BKN002 BECMG 1908/1911 9999 NSW PROB30 TEMPO 1914/1917 4000 SHRA BKN020TCU BECMG 2000/2003 3000 BR PROB30 TEMPO 2003/2006 0500 FG VV///=

    Metar: nil

  • Evreux (LFOE)

    Taf: TAF AMD LFOE 190602Z 1906/2003 VRB03KT 7000 BKN014 TEMPO 1908/1910 BKN010 BECMG 1910/1912 BKN025 BECMG 1922/1924 3000 BR PROB40 TEMPO 2000/2003 0500 FG VV///=

    Metar: nil

  • Erfurt/Bindersleben (EDDE)

    Taf: TAF EDDE 190500Z 1906/2006 29009KT 9999 FEW035 BECMG 1916/1918 23005KT=

    Metar: nil